Elsdon, Illinois
Current Conditions -  °F | °C
As of 5:23 AM on Saturday 25 Oct 2014 (Local Time) from KMDW Reporting Station
Haze Haze  
Wind Chill: 58°   Ceiling: 800
Heat Index: 58°   Visibility: 5mi
Dew Point: 54°   Wind: 10mph
Humidity: 87%   Direction: 290°WNW
Pressure: 29.92"   Gusts: NA
Location:  41.8105°N, 87.7117°W
Report Text: KMDW 251023Z 29009KT 5SM BR OVC008 14/12 A2992 RMK AO2 T01440122
Loading
Personal Weather Stations






























Interactive Weather Map
Tropical Storm Tracking
New forecast layout! Learn more

10-Day Weather Forecast

Advertisements
Track Severe Weather on mobile